PAFR METAR and TAF weather

Enter ICAO airport designator
Station Type Date Time Source
PAFR METAR 2021/03/03 19:58 UTC NOAA

PAFR 031958Z AUTO 17003KT 7SM CLR M12/M14 A2946 RMK AO2 SLP991 T11251139 FZRANO $


Station Type Date Time Source
PAFR Decoded METAR 2021/03/03 19:58 UTC NOAA

Ft. Richardson / Bryant U. S. Army Heliport, Ak, AK, United States (PAFR) 61-16N 149-39W 115M
Mar 03, 2021 - 02:58 PM EST / 2021.03.03 1958 UTC
Wind: from the S (170 degrees) at 3 MPH (3 KT):0
Visibility: 7 mile(s):0
Sky conditions: clear
Temperature: 9.5 F (-12.5 C)
Dew Point: 7.0 F (-13.9 C)
Relative Humidity: 89%
Pressure (altimeter): 29.46 in. Hg (997 hPa)
ob: PAFR 031958Z AUTO 17003KT 7SM CLR M12/M14 A2946 RMK AO2 SLP991 T11251139 FZRANO
cycle: 20

Station Type Date Time Source
PAFR TAF UTC NOAA

Error!

Example: see airport list